createdAt,value
2017-12-04T00:01:11.161Z,4.00
2017-12-04T00:03:39.468Z,4.00
2017-12-04T00:06:06.988Z,4.00
2017-12-04T00:08:35.288Z,4.00
2017-12-04T00:11:02.810Z,4.00
2017-12-04T00:13:30.369Z,4.00
2017-12-04T00:15:57.906Z,4.10
2017-12-04T00:18:25.476Z,4.10
2017-12-04T00:20:53.023Z,4.20
2017-12-04T00:23:20.542Z,4.20
2017-12-04T00:25:49.245Z,4.20
2017-12-04T00:28:16.888Z,4.20
2017-12-04T00:30:44.464Z,4.10
2017-12-04T00:33:11.981Z,4.20
2017-12-04T00:35:40.024Z,4.10
2017-12-04T00:38:07.544Z,4.00
2017-12-04T00:40:35.071Z,4.10
2017-12-04T00:43:04.368Z,4.10
2017-12-04T00:45:31.949Z,4.10
2017-12-04T00:47:59.536Z,4.10
2017-12-04T00:50:27.071Z,4.10
2017-12-04T00:52:55.361Z,4.10
2017-12-04T00:55:22.926Z,4.10
2017-12-04T00:57:50.452Z,4.10
2017-12-04T01:00:18.004Z,4.10
2017-12-04T01:02:45.547Z,4.10
2017-12-04T01:05:13.087Z,4.10
2017-12-04T01:07:40.604Z,4.10
2017-12-04T01:10:08.156Z,4.00
2017-12-04T01:12:35.712Z,4.10
2017-12-04T01:15:03.985Z,4.10
2017-12-04T01:17:31.552Z,4.10
2017-12-04T01:19:59.884Z,4.20
2017-12-04T01:22:27.447Z,4.20
2017-12-04T01:24:54.955Z,4.20
2017-12-04T01:27:22.516Z,4.20
2017-12-04T01:29:50.048Z,4.20
2017-12-04T01:32:17.595Z,4.20
2017-12-04T01:34:45.116Z,4.10
2017-12-04T01:37:12.671Z,4.20
2017-12-04T01:39:40.230Z,4.10
2017-12-04T01:42:08.611Z,4.10
2017-12-04T01:44:36.140Z,4.10
2017-12-04T01:47:03.713Z,4.20
2017-12-04T01:49:31.235Z,4.10
2017-12-04T01:51:59.121Z,4.20
2017-12-04T01:54:26.648Z,4.20
2017-12-04T01:56:54.212Z,4.30
2017-12-04T01:59:21.783Z,4.30
2017-12-04T02:01:49.328Z,4.20
2017-12-04T02:04:16.844Z,4.20
2017-12-04T02:06:44.425Z,4.20
2017-12-04T02:09:11.945Z,4.20
2017-12-04T02:11:39.495Z,4.20
2017-12-04T02:14:07.030Z,4.10
2017-12-04T02:16:34.544Z,4.10
2017-12-04T02:19:02.085Z,4.20
2017-12-04T02:21:29.596Z,4.20
2017-12-04T02:23:57.139Z,4.20
2017-12-04T02:26:24.746Z,4.10
2017-12-04T02:28:52.259Z,4.20
2017-12-04T02:31:19.781Z,4.30
2017-12-04T02:33:47.324Z,4.30
2017-12-04T02:36:15.614Z,4.30
2017-12-04T02:38:43.176Z,4.30
2017-12-04T02:41:11.496Z,4.30
2017-12-04T02:43:39.061Z,4.30
2017-12-04T02:46:06.612Z,4.20
2017-12-04T02:48:34.896Z,4.30
2017-12-04T02:51:02.448Z,4.30
2017-12-04T02:53:29.961Z,4.20
2017-12-04T02:55:58.295Z,4.10
2017-12-04T02:58:25.843Z,4.10
2017-12-04T03:00:53.369Z,4.10
2017-12-04T03:03:20.929Z,4.10
2017-12-04T03:05:48.476Z,4.10
2017-12-04T03:08:16.033Z,4.10
2017-12-04T03:10:44.337Z,4.10
2017-12-04T03:13:11.914Z,4.20
2017-12-04T03:15:39.440Z,4.30
2017-12-04T03:18:06.957Z,4.30
2017-12-04T03:20:34.500Z,4.20
2017-12-04T03:23:02.093Z,4.20
2017-12-04T03:25:29.626Z,4.20
2017-12-04T03:27:57.218Z,4.40
2017-12-04T03:30:24.744Z,4.40
2017-12-04T03:32:52.550Z,4.40
2017-12-04T03:35:20.069Z,4.40
2017-12-04T03:37:47.621Z,4.40
2017-12-04T03:40:15.202Z,4.50
2017-12-04T03:42:42.778Z,4.50
2017-12-04T03:45:10.305Z,4.40
2017-12-04T03:47:37.855Z,4.40
2017-12-04T03:50:05.405Z,4.20
2017-12-04T03:52:32.913Z,4.30
2017-12-04T03:55:00.470Z,4.30
2017-12-04T03:57:27.995Z,4.40
2017-12-04T03:59:55.563Z,4.40
2017-12-04T04:02:23.104Z,4.30
2017-12-04T04:04:50.685Z,4.30
2017-12-04T04:07:18.215Z,4.30
2017-12-04T04:09:45.775Z,4.40
2017-12-04T04:12:13.333Z,4.40
2017-12-04T04:14:40.853Z,4.50
2017-12-04T04:17:08.406Z,4.50
2017-12-04T04:19:35.940Z,4.50
2017-12-04T04:22:03.615Z,4.50
2017-12-04T04:24:31.168Z,4.50
2017-12-04T04:26:58.698Z,4.50
2017-12-04T04:29:26.253Z,4.50
2017-12-04T04:31:53.779Z,4.50
2017-12-04T04:34:21.339Z,4.50
2017-12-04T04:36:48.875Z,4.40
2017-12-04T04:39:16.449Z,4.40
2017-12-04T04:41:44.007Z,4.30
2017-12-04T04:44:11.541Z,4.20
2017-12-04T04:46:39.100Z,4.30
2017-12-04T04:49:06.624Z,4.30
2017-12-04T04:51:34.157Z,4.30
2017-12-04T04:54:02.522Z,4.50
2017-12-04T04:56:30.082Z,4.50
2017-12-04T04:58:57.611Z,4.40
2017-12-04T05:01:25.170Z,4.40
2017-12-04T05:03:52.698Z,4.40
2017-12-04T05:06:20.268Z,4.40
2017-12-04T05:08:47.811Z,4.40
2017-12-04T05:11:15.569Z,4.50
2017-12-04T05:13:43.132Z,4.50
2017-12-04T05:16:10.689Z,4.50
2017-12-04T05:18:38.249Z,4.60
2017-12-04T05:21:05.794Z,4.60
2017-12-04T05:23:34.213Z,4.60
2017-12-04T05:26:01.788Z,4.50
2017-12-04T05:28:29.353Z,4.50
2017-12-04T05:30:57.807Z,4.50
2017-12-04T05:33:25.378Z,4.60
2017-12-04T05:35:52.926Z,4.60
2017-12-04T05:38:20.482Z,4.60
2017-12-04T05:40:48.010Z,4.60
2017-12-04T05:43:15.569Z,4.50
2017-12-04T05:45:43.124Z,4.50
2017-12-04T05:48:10.676Z,4.50
2017-12-04T05:50:38.208Z,4.40
2017-12-04T05:53:05.770Z,4.50
2017-12-04T05:55:33.301Z,4.60
2017-12-04T05:58:00.896Z,4.50
2017-12-04T06:00:28.426Z,4.50
2017-12-04T06:02:56.012Z,4.50
2017-12-04T06:05:23.576Z,4.40
2017-12-04T06:07:51.103Z,4.40
2017-12-04T06:10:18.628Z,4.50
2017-12-04T06:12:47.297Z,4.50
2017-12-04T06:15:14.857Z,4.50
2017-12-04T06:17:42.642Z,4.60
2017-12-04T06:20:10.175Z,4.60
2017-12-04T06:22:37.742Z,4.60
2017-12-04T06:25:06.174Z,4.60
2017-12-04T06:27:33.733Z,4.60
2017-12-04T06:30:01.343Z,4.60
2017-12-04T06:32:28.966Z,4.60
2017-12-04T06:34:56.554Z,4.50
2017-12-04T06:37:24.081Z,4.50
2017-12-04T06:39:51.605Z,4.50
2017-12-04T06:42:19.167Z,4.60
2017-12-04T06:44:46.693Z,4.60
2017-12-04T06:47:14.518Z,4.60
2017-12-04T06:49:42.095Z,4.70
2017-12-04T06:52:09.649Z,4.70
2017-12-04T06:54:37.194Z,4.70
2017-12-04T06:57:04.795Z,4.60
2017-12-04T06:59:32.377Z,4.70
2017-12-04T07:02:00.674Z,4.70
2017-12-04T07:04:28.235Z,4.70
2017-12-04T07:06:55.782Z,4.70
2017-12-04T07:09:23.730Z,4.70
2017-12-04T07:11:51.290Z,4.70
2017-12-04T07:14:18.825Z,4.70
2017-12-04T07:16:46.383Z,4.70
2017-12-04T07:19:13.945Z,4.60
2017-12-04T07:21:41.512Z,4.60
2017-12-04T07:24:09.055Z,4.70
2017-12-04T07:26:36.577Z,4.70
2017-12-04T07:29:04.902Z,4.70
2017-12-04T07:31:32.426Z,4.70
2017-12-04T07:33:59.987Z,4.80
2017-12-04T07:36:27.533Z,4.80
2017-12-04T07:38:55.106Z,4.80
2017-12-04T07:41:22.645Z,4.80
2017-12-04T07:43:51.296Z,4.90
2017-12-04T07:46:18.919Z,4.80
2017-12-04T07:48:46.453Z,4.70
2017-12-04T07:51:14.792Z,4.60
2017-12-04T07:53:42.504Z,4.60
2017-12-04T07:56:10.041Z,4.70
2017-12-04T07:58:38.389Z,4.80
2017-12-04T08:01:06.225Z,4.80
2017-12-04T08:03:33.905Z,4.80
2017-12-04T08:06:01.483Z,4.80
2017-12-04T08:08:29.010Z,4.90
2017-12-04T08:10:56.549Z,4.90
2017-12-04T08:13:24.244Z,5.00
2017-12-04T08:15:51.779Z,4.90
2017-12-04T08:18:19.467Z,4.90
2017-12-04T08:20:47.076Z,4.80
2017-12-04T08:23:14.667Z,4.90
2017-12-04T08:25:42.257Z,4.90
2017-12-04T08:28:09.808Z,4.90
2017-12-04T08:30:37.390Z,4.90
2017-12-04T08:33:04.972Z,4.90
2017-12-04T08:35:33.276Z,4.80
2017-12-04T08:38:00.851Z,4.80
2017-12-04T08:40:28.454Z,4.90
2017-12-04T08:42:55.997Z,4.90
2017-12-04T08:45:23.844Z,4.90
2017-12-04T08:47:51.853Z,5.00
2017-12-04T08:50:19.945Z,4.90
2017-12-04T08:52:47.538Z,4.80
2017-12-04T08:55:15.121Z,4.90
2017-12-04T08:57:42.680Z,4.90
2017-12-04T09:00:10.260Z,4.80
2017-12-04T09:02:37.780Z,4.80
2017-12-04T09:05:05.711Z,4.90
2017-12-04T09:07:33.249Z,4.90
2017-12-04T09:10:00.864Z,4.90
2017-12-04T09:12:28.430Z,5.00
2017-12-04T09:14:55.987Z,5.10
2017-12-04T09:17:23.597Z,5.10
2017-12-04T09:19:51.181Z,5.20
2017-12-04T09:22:18.738Z,5.20
2017-12-04T09:24:46.394Z,5.20
2017-12-04T09:27:14.109Z,5.20
2017-12-04T09:29:41.918Z,5.20
2017-12-04T09:32:09.848Z,5.10
2017-12-04T09:34:37.503Z,5.10
2017-12-04T09:37:05.025Z,5.20
2017-12-04T09:39:34.608Z,5.20
2017-12-04T09:42:02.947Z,5.10
2017-12-04T09:44:30.728Z,5.20
2017-12-04T09:46:58.298Z,5.20
2017-12-04T09:49:25.853Z,5.20
2017-12-04T09:51:53.914Z,5.10
2017-12-04T09:54:31.421Z,5.10
2017-12-04T09:56:59.024Z,5.10
2017-12-04T09:59:27.842Z,5.10
2017-12-04T10:01:55.628Z,5.10
2017-12-04T10:04:23.269Z,5.10
2017-12-04T10:06:50.857Z,5.00
2017-12-04T10:09:19.472Z,5.00
2017-12-04T10:11:47.141Z,5.00
2017-12-04T10:14:14.682Z,5.00
2017-12-04T10:16:42.262Z,5.10
2017-12-04T10:19:09.778Z,5.10
2017-12-04T10:21:37.341Z,5.00
2017-12-04T10:24:04.997Z,5.00
2017-12-04T10:26:32.610Z,5.00
2017-12-04T10:29:00.163Z,5.00
2017-12-04T10:31:28.479Z,5.10
2017-12-04T10:33:56.085Z,5.10
2017-12-04T10:36:23.662Z,5.10
2017-12-04T10:38:51.269Z,5.10
2017-12-04T10:41:18.849Z,5.20
2017-12-04T10:43:46.381Z,5.20
2017-12-04T10:46:14.040Z,5.10
2017-12-04T10:48:41.594Z,5.10
2017-12-04T10:51:09.162Z,5.10
2017-12-04T10:53:36.685Z,5.10
2017-12-04T10:56:04.270Z,5.20
2017-12-04T10:58:31.976Z,5.30
2017-12-04T11:00:59.597Z,5.30
2017-12-04T11:03:27.145Z,5.20
2017-12-04T11:05:54.671Z,5.30
2017-12-04T11:08:23.001Z,5.20
2017-12-04T11:10:50.901Z,5.20
2017-12-04T11:13:18.447Z,5.20
2017-12-04T11:15:46.001Z,5.30
2017-12-04T11:18:13.623Z,5.30
2017-12-04T11:20:41.183Z,5.30
2017-12-04T11:23:08.733Z,5.30
2017-12-04T11:25:36.520Z,5.30
2017-12-04T11:28:04.390Z,5.30
2017-12-04T11:30:31.997Z,5.40
2017-12-04T11:32:59.572Z,5.40
2017-12-04T11:35:27.089Z,5.30
2017-12-04T11:37:54.711Z,5.40
2017-12-04T11:40:22.241Z,5.40
2017-12-04T11:42:50.594Z,5.40
2017-12-04T11:45:18.173Z,5.40
2017-12-04T11:47:45.722Z,5.40
2017-12-04T11:50:14.101Z,5.40
2017-12-04T11:52:41.639Z,5.40
2017-12-04T11:55:09.234Z,5.50
2017-12-04T11:57:36.799Z,5.40
2017-12-04T12:00:05.147Z,5.50
2017-12-04T12:02:32.675Z,5.40
2017-12-04T12:05:14.722Z,5.50
2017-12-04T12:07:42.245Z,5.50
2017-12-04T12:10:13.677Z,5.50
2017-12-04T12:12:41.239Z,5.50
2017-12-04T12:15:08.908Z,5.50
2017-12-04T12:17:36.461Z,5.50
2017-12-04T12:20:04.102Z,5.50
2017-12-04T12:22:31.637Z,5.50
2017-12-04T12:24:59.318Z,5.50
2017-12-04T12:27:26.869Z,5.50
2017-12-04T12:29:54.434Z,5.60
2017-12-04T12:32:21.952Z,5.50
2017-12-04T12:34:49.476Z,5.50
2017-12-04T12:37:17.731Z,5.50
2017-12-04T12:39:45.246Z,5.60
2017-12-04T12:42:12.771Z,5.60
2017-12-04T12:44:40.343Z,5.60
2017-12-04T12:47:07.879Z,5.60
2017-12-04T12:49:36.220Z,5.60
2017-12-04T12:52:03.806Z,5.60
2017-12-04T12:54:31.978Z,5.60
2017-12-04T12:57:00.361Z,5.70
2017-12-04T12:59:28.683Z,5.70
2017-12-04T13:01:56.238Z,5.60
2017-12-04T13:04:23.759Z,5.60
2017-12-04T13:06:51.353Z,5.60
2017-12-04T13:09:18.886Z,5.60
2017-12-04T13:11:47.309Z,5.60
2017-12-04T13:14:15.614Z,5.60
2017-12-04T13:16:43.987Z,5.60
2017-12-04T13:19:11.547Z,5.60
2017-12-04T13:21:39.118Z,5.60
2017-12-04T13:24:06.655Z,5.60
2017-12-04T13:26:34.232Z,5.50
2017-12-04T13:29:01.796Z,5.40
2017-12-04T13:31:29.405Z,5.40
2017-12-04T13:34:08.691Z,5.50
2017-12-04T13:36:42.258Z,5.50
2017-12-04T13:39:09.922Z,5.60
2017-12-04T13:41:37.517Z,5.50
2017-12-04T13:44:05.075Z,5.60
2017-12-04T13:46:33.418Z,5.70
2017-12-04T13:49:00.984Z,5.60
2017-12-04T13:51:29.325Z,5.60
2017-12-04T13:53:56.854Z,5.60
2017-12-04T13:56:24.458Z,5.60
2017-12-04T13:58:52.378Z,5.50
2017-12-04T14:01:19.921Z,5.50
2017-12-04T14:03:47.462Z,5.50
2017-12-04T14:06:20.145Z,5.60
2017-12-04T14:08:47.692Z,5.50
2017-12-04T14:11:15.264Z,5.50
2017-12-04T14:13:42.789Z,5.50
2017-12-04T14:16:10.590Z,5.40
2017-12-04T14:18:38.114Z,5.30
2017-12-04T14:21:05.671Z,5.30
2017-12-04T14:23:33.267Z,5.30
2017-12-04T14:26:00.788Z,5.40
2017-12-04T14:28:28.375Z,5.40
2017-12-04T14:30:55.900Z,5.50
2017-12-04T14:33:23.412Z,5.40
2017-12-04T14:35:50.969Z,5.60
2017-12-04T14:38:19.185Z,5.50
2017-12-04T14:40:46.767Z,5.50
2017-12-04T14:43:14.857Z,5.50
2017-12-04T14:45:42.934Z,5.50
2017-12-04T14:48:10.526Z,5.50
2017-12-04T14:50:38.148Z,5.60
2017-12-04T14:53:05.668Z,5.60
2017-12-04T14:55:34.177Z,5.60
2017-12-04T14:58:01.697Z,5.50
2017-12-04T15:00:29.506Z,5.50
2017-12-04T15:02:57.065Z,5.40
2017-12-04T15:05:24.620Z,5.30
2017-12-04T15:07:52.185Z,5.40
2017-12-04T15:10:19.710Z,5.40
2017-12-04T15:12:47.286Z,5.50
2017-12-04T15:15:15.176Z,5.60
2017-12-04T15:17:42.760Z,5.60
2017-12-04T15:20:10.467Z,5.60
2017-12-04T15:22:38.344Z,5.60
2017-12-04T15:25:05.929Z,5.70
2017-12-04T15:27:34.489Z,5.60
2017-12-04T15:30:02.042Z,5.60
2017-12-04T15:32:29.631Z,5.60
2017-12-04T15:34:57.188Z,5.60
2017-12-04T15:37:24.955Z,5.60
2017-12-04T15:39:52.518Z,5.60
2017-12-04T15:42:20.091Z,5.60
2017-12-04T15:44:47.705Z,5.60
2017-12-04T15:47:16.325Z,5.70
2017-12-04T15:49:43.853Z,5.70
2017-12-04T15:52:12.385Z,5.70
2017-12-04T15:54:41.065Z,5.60
2017-12-04T15:57:08.633Z,5.70
2017-12-04T15:59:36.233Z,5.80
2017-12-04T16:02:03.778Z,5.80
2017-12-04T16:04:31.334Z,5.80
2017-12-04T16:06:58.921Z,5.80
2017-12-04T16:09:27.265Z,5.80
2017-12-04T16:11:54.871Z,5.80
2017-12-04T16:14:22.648Z,5.80
2017-12-04T16:16:50.223Z,5.80
2017-12-04T16:19:17.786Z,5.80
2017-12-04T16:21:45.373Z,5.80
2017-12-04T16:24:13.021Z,5.80
2017-12-04T16:26:40.579Z,5.80
2017-12-04T16:29:08.418Z,5.90
2017-12-04T16:31:36.123Z,5.80
2017-12-04T16:34:03.657Z,5.90
2017-12-04T16:36:31.246Z,5.90
2017-12-04T16:38:58.813Z,5.90
2017-12-04T16:41:26.367Z,5.90
2017-12-04T16:43:53.894Z,5.80
2017-12-04T16:46:21.456Z,5.80
2017-12-04T16:48:48.981Z,5.90
2017-12-04T16:51:16.568Z,5.80
2017-12-04T16:53:44.121Z,5.80
2017-12-04T16:56:11.856Z,5.80
2017-12-04T16:58:39.468Z,5.80
2017-12-04T17:01:07.022Z,5.80
2017-12-04T17:03:34.573Z,5.80
2017-12-04T17:06:02.250Z,5.90
2017-12-04T17:08:29.808Z,5.90
2017-12-04T17:10:57.328Z,5.80
2017-12-04T17:13:24.944Z,5.80
2017-12-04T17:15:52.481Z,5.70
2017-12-04T17:18:20.067Z,5.70
2017-12-04T17:20:47.621Z,5.60
2017-12-04T17:23:15.147Z,5.60
2017-12-04T17:25:42.705Z,5.70
2017-12-04T17:28:10.960Z,5.70
2017-12-04T17:30:38.514Z,5.70
2017-12-04T17:33:06.042Z,5.60
2017-12-04T17:35:33.615Z,5.60
2017-12-04T17:38:01.162Z,5.60
2017-12-04T17:40:29.045Z,5.60
2017-12-04T17:42:57.330Z,5.70
2017-12-04T17:45:24.964Z,5.70
2017-12-04T17:47:52.540Z,5.80
2017-12-04T17:50:20.869Z,5.90
2017-12-04T17:52:48.414Z,5.90
2017-12-04T17:55:16.050Z,5.70
2017-12-04T17:57:43.597Z,5.70
2017-12-04T18:00:11.137Z,5.70
2017-12-04T18:02:41.311Z,5.70
2017-12-04T18:05:08.881Z,5.80
2017-12-04T18:07:36.409Z,5.70
2017-12-04T18:10:03.965Z,5.80
2017-12-04T18:12:32.254Z,5.80
2017-12-04T18:14:59.801Z,5.80
2017-12-04T18:17:28.117Z,5.90
2017-12-04T18:19:55.680Z,5.90
2017-12-04T18:22:23.209Z,5.80
2017-12-04T18:24:50.813Z,5.90
2017-12-04T18:27:18.617Z,5.90
2017-12-04T18:29:46.948Z,5.90
2017-12-04T18:32:14.470Z,5.90
2017-12-04T18:34:42.835Z,5.90
2017-12-04T18:37:11.121Z,6.00
2017-12-04T18:39:38.646Z,6.00
2017-12-04T18:42:06.505Z,5.90
2017-12-04T18:44:34.059Z,5.90
2017-12-04T18:47:01.640Z,5.90
2017-12-04T18:49:29.201Z,5.80
2017-12-04T18:51:56.729Z,5.80
2017-12-04T18:54:24.321Z,5.80
2017-12-04T18:56:51.881Z,5.80
2017-12-04T18:59:19.442Z,5.80
2017-12-04T19:01:47.042Z,5.90
2017-12-04T19:04:14.577Z,6.00
2017-12-04T19:06:42.137Z,5.90
2017-12-04T19:09:09.729Z,6.00
2017-12-04T19:11:37.298Z,6.00
2017-12-04T19:14:04.870Z,6.00
2017-12-04T19:16:32.519Z,6.00
2017-12-04T19:19:00.123Z,6.00
2017-12-04T19:21:27.652Z,6.00
2017-12-04T19:23:55.220Z,6.00
2017-12-04T19:26:22.863Z,6.10
2017-12-04T19:28:50.437Z,6.10
2017-12-04T19:31:17.961Z,6.10
2017-12-04T19:33:45.520Z,6.10
2017-12-04T19:36:13.897Z,6.00
2017-12-04T19:38:42.236Z,6.10
2017-12-04T19:41:09.779Z,6.00
2017-12-04T19:43:37.341Z,6.10
2017-12-04T19:46:04.901Z,6.00
2017-12-04T19:48:32.441Z,6.10
2017-12-04T19:51:00.009Z,6.10
2017-12-04T19:53:27.542Z,6.00
2017-12-04T19:55:55.093Z,6.10
2017-12-04T19:58:22.660Z,6.10
2017-12-04T20:00:50.246Z,6.10
2017-12-04T20:03:17.794Z,6.10
2017-12-04T20:05:45.356Z,6.00
2017-12-04T20:08:12.879Z,6.00
2017-12-04T20:10:40.952Z,6.00
2017-12-04T20:13:08.535Z,6.00
2017-12-04T20:15:36.053Z,6.10
2017-12-04T20:18:03.622Z,6.00
2017-12-04T20:20:31.197Z,6.00
2017-12-04T20:22:59.545Z,6.10
2017-12-04T20:25:27.061Z,6.00
2017-12-04T20:27:54.615Z,6.00
2017-12-04T20:30:22.168Z,6.00
2017-12-04T20:32:49.715Z,5.90
2017-12-04T20:35:18.037Z,5.90
2017-12-04T20:37:45.562Z,5.90
2017-12-04T20:40:13.165Z,6.00
2017-12-04T20:42:40.702Z,5.90
2017-12-04T20:45:08.263Z,6.00
2017-12-04T20:47:35.821Z,6.00
2017-12-04T20:50:03.340Z,5.90
2017-12-04T20:52:30.966Z,6.00
2017-12-04T20:54:58.537Z,6.00
2017-12-04T20:57:26.098Z,6.00
2017-12-04T20:59:53.646Z,6.00
2017-12-04T21:02:21.221Z,6.00
2017-12-04T21:04:48.767Z,6.00
2017-12-04T21:07:16.293Z,6.10
2017-12-04T21:09:55.589Z,6.00
2017-12-04T21:12:23.141Z,6.10
2017-12-04T21:15:03.142Z,6.00
2017-12-04T21:17:34.316Z,6.00
2017-12-04T21:20:05.374Z,5.90
2017-12-04T21:22:32.965Z,5.90
2017-12-04T21:25:00.553Z,5.80
2017-12-04T21:27:28.085Z,5.80
2017-12-04T21:29:55.606Z,5.90
2017-12-04T21:32:23.166Z,6.00
2017-12-04T21:34:51.053Z,6.10
2017-12-04T21:37:18.613Z,6.10
2017-12-04T21:39:46.917Z,6.10
2017-12-04T21:42:14.485Z,6.10
2017-12-04T21:44:42.047Z,6.00
2017-12-04T21:47:09.604Z,6.10
2017-12-04T21:49:37.138Z,6.10
2017-12-04T21:52:05.462Z,6.20
2017-12-04T21:54:33.098Z,6.20
2017-12-04T21:57:01.070Z,6.20
2017-12-04T21:59:28.630Z,6.20
2017-12-04T22:01:56.178Z,6.20
2017-12-04T22:04:23.748Z,6.10
2017-12-04T22:06:51.329Z,6.10
2017-12-04T22:09:18.885Z,6.10
2017-12-04T22:11:46.437Z,6.10
2017-12-04T22:14:14.006Z,6.10
2017-12-04T22:16:41.521Z,6.10
2017-12-04T22:19:09.080Z,6.10
2017-12-04T22:21:38.085Z,6.10
2017-12-04T22:24:05.661Z,6.10
2017-12-04T22:26:33.633Z,6.20
2017-12-04T22:29:01.154Z,6.20
2017-12-04T22:31:28.695Z,6.10
2017-12-04T22:33:56.220Z,6.10
2017-12-04T22:36:23.798Z,6.10
2017-12-04T22:38:51.324Z,6.10
2017-12-04T22:41:18.895Z,6.20
2017-12-04T22:43:46.533Z,6.30
2017-12-04T22:46:14.866Z,6.20
2017-12-04T22:48:42.402Z,6.20
2017-12-04T22:51:09.975Z,6.20
2017-12-04T22:53:37.539Z,6.20
2017-12-04T22:56:05.121Z,6.20
2017-12-04T22:58:32.645Z,6.20
2017-12-04T23:01:00.199Z,6.20
2017-12-04T23:03:27.717Z,6.20
2017-12-04T23:05:55.272Z,6.20
2017-12-04T23:08:22.840Z,6.20
2017-12-04T23:10:51.158Z,6.20
2017-12-04T23:13:19.054Z,6.20
2017-12-04T23:15:46.630Z,6.20
2017-12-04T23:18:14.152Z,6.20
2017-12-04T23:20:41.710Z,6.30
2017-12-04T23:23:09.290Z,6.30
2017-12-04T23:25:36.849Z,6.30
2017-12-04T23:28:04.358Z,6.30
2017-12-04T23:30:31.899Z,6.30
2017-12-04T23:32:59.441Z,6.40
2017-12-04T23:35:26.974Z,6.40
2017-12-04T23:37:54.526Z,6.40
2017-12-04T23:40:22.098Z,6.40
2017-12-04T23:42:49.618Z,6.40
2017-12-04T23:45:17.160Z,6.40
2017-12-04T23:47:44.740Z,6.40
2017-12-04T23:50:12.291Z,6.40
2017-12-04T23:52:39.841Z,6.30
2017-12-04T23:55:07.392Z,6.30
2017-12-04T23:57:34.980Z,6.40
